createdAt,value
2018-05-23T00:01:09.349Z,18.53
2018-05-23T00:03:37.012Z,18.57
2018-05-23T00:06:04.626Z,18.63
2018-05-23T00:08:32.277Z,18.69
2018-05-23T00:10:59.912Z,18.67
2018-05-23T00:13:27.513Z,18.59
2018-05-23T00:15:55.177Z,18.62
2018-05-23T00:18:22.772Z,18.63
2018-05-23T00:20:50.421Z,18.66
2018-05-23T00:23:18.033Z,18.59
2018-05-23T00:25:45.696Z,18.52
2018-05-23T00:28:13.337Z,18.41
2018-05-23T00:30:40.982Z,18.35
2018-05-23T00:33:08.585Z,18.28
2018-05-23T00:35:36.223Z,18.30
2018-05-23T00:38:03.929Z,18.19
2018-05-23T00:40:31.578Z,18.13
2018-05-23T00:42:59.181Z,18.14
2018-05-23T00:45:26.840Z,18.16
2018-05-23T00:47:54.446Z,18.11
2018-05-23T00:50:22.300Z,18.02
2018-05-23T00:52:50.005Z,18.03
2018-05-23T00:55:29.169Z,18.05
2018-05-23T00:57:56.768Z,18.05
2018-05-23T01:00:24.429Z,18.04
2018-05-23T01:02:52.056Z,18.07
2018-05-23T01:05:19.739Z,18.15
2018-05-23T01:07:47.372Z,18.26
2018-05-23T01:10:15.013Z,18.23
2018-05-23T01:12:42.653Z,18.22
2018-05-23T01:15:10.271Z,18.23
2018-05-23T01:17:37.909Z,18.28
2018-05-23T01:20:05.512Z,18.23
2018-05-23T01:22:33.154Z,18.12
2018-05-23T01:25:00.758Z,18.10
2018-05-23T01:27:28.436Z,18.13
2018-05-23T01:29:56.076Z,18.09
2018-05-23T01:32:23.765Z,18.02
2018-05-23T01:34:51.398Z,18.08
2018-05-23T01:37:19.128Z,18.13
2018-05-23T01:39:46.785Z,18.14
2018-05-23T01:42:14.451Z,18.20
2018-05-23T01:44:42.122Z,18.17
2018-05-23T01:47:09.719Z,18.20
2018-05-23T01:49:37.369Z,18.22
2018-05-23T01:52:04.986Z,18.26
2018-05-23T01:54:32.745Z,18.29
2018-05-23T01:57:00.348Z,18.34
2018-05-23T01:59:27.990Z,18.17
2018-05-23T02:01:55.639Z,18.07
2018-05-23T02:04:23.265Z,18.11
2018-05-23T02:06:50.873Z,18.17
2018-05-23T02:09:18.506Z,18.13
2018-05-23T02:11:46.116Z,17.90
2018-05-23T02:14:13.748Z,17.77
2018-05-23T02:16:41.378Z,17.76
2018-05-23T02:19:09.008Z,17.64
2018-05-23T02:21:36.697Z,17.55
2018-05-23T02:24:04.328Z,17.63
2018-05-23T02:26:31.924Z,17.76
2018-05-23T02:28:59.561Z,17.71
2018-05-23T02:31:27.166Z,17.74
2018-05-23T02:33:54.846Z,17.59
2018-05-23T02:36:22.459Z,17.45
2018-05-23T02:38:50.074Z,17.34
2018-05-23T02:41:17.808Z,17.23
2018-05-23T02:43:45.450Z,17.23
2018-05-23T02:46:18.522Z,17.21
2018-05-23T02:48:46.139Z,17.30
2018-05-23T02:51:13.930Z,17.30
2018-05-23T02:53:41.509Z,17.37
2018-05-23T02:56:09.163Z,17.24
2018-05-23T02:58:36.770Z,17.21
2018-05-23T03:01:04.397Z,17.20
2018-05-23T03:03:32.029Z,17.14
2018-05-23T03:05:59.687Z,17.15
2018-05-23T03:08:27.297Z,17.16
2018-05-23T03:10:54.941Z,17.22
2018-05-23T03:13:22.609Z,17.31
2018-05-23T03:15:50.269Z,17.35
2018-05-23T03:18:17.869Z,17.33
2018-05-23T03:20:45.597Z,17.35
2018-05-23T03:23:13.207Z,17.38
2018-05-23T03:25:40.852Z,17.43
2018-05-23T03:28:08.489Z,17.35
2018-05-23T03:30:36.145Z,17.40
2018-05-23T03:33:03.764Z,17.31
2018-05-23T03:35:31.373Z,17.30
2018-05-23T03:37:59.005Z,17.32
2018-05-23T03:40:26.629Z,17.24
2018-05-23T03:42:54.296Z,17.28
2018-05-23T03:45:21.901Z,17.35
2018-05-23T03:47:49.542Z,17.41
2018-05-23T03:50:17.140Z,17.45
2018-05-23T03:52:44.822Z,17.50
2018-05-23T03:55:12.465Z,17.56
2018-05-23T03:57:40.212Z,17.59
2018-05-23T04:00:19.355Z,17.67
2018-05-23T04:02:58.680Z,17.72
2018-05-23T04:05:37.962Z,17.81
2018-05-23T04:08:07.378Z,17.77
2018-05-23T04:10:34.968Z,17.79
2018-05-23T04:13:02.620Z,17.74
2018-05-23T04:15:30.277Z,17.76
2018-05-23T04:17:57.876Z,17.73
2018-05-23T04:20:25.469Z,17.76
2018-05-23T04:22:53.110Z,17.79
2018-05-23T04:25:20.729Z,17.76
2018-05-23T04:27:48.389Z,17.67
2018-05-23T04:30:16.081Z,17.45
2018-05-23T04:32:43.716Z,17.45
2018-05-23T04:35:11.336Z,17.29
2018-05-23T04:37:38.984Z,17.30
2018-05-23T04:40:06.612Z,17.36
2018-05-23T04:42:34.363Z,17.37
2018-05-23T04:45:01.970Z,17.31
2018-05-23T04:47:29.620Z,17.40
2018-05-23T04:49:57.283Z,17.46
2018-05-23T04:52:24.908Z,17.57
2018-05-23T04:54:52.541Z,17.66
2018-05-23T04:57:20.146Z,17.75
2018-05-23T04:59:47.782Z,17.76
2018-05-23T05:02:15.397Z,17.76
2018-05-23T05:04:43.063Z,17.85
2018-05-23T05:07:10.677Z,17.81
2018-05-23T05:09:38.351Z,17.61
2018-05-23T05:12:05.969Z,17.30
2018-05-23T05:14:33.598Z,17.26
2018-05-23T05:17:01.218Z,17.39
2018-05-23T05:19:29.334Z,17.52
2018-05-23T05:21:56.965Z,17.60
2018-05-23T05:24:24.636Z,17.65
2018-05-23T05:26:52.274Z,17.60
2018-05-23T05:29:19.928Z,17.52
2018-05-23T05:31:47.541Z,17.49
2018-05-23T05:34:15.149Z,17.44
2018-05-23T05:36:42.783Z,17.35
2018-05-23T05:39:10.518Z,17.21
2018-05-23T05:41:38.075Z,17.21
2018-05-23T05:44:05.689Z,17.20
2018-05-23T05:46:33.324Z,17.20
2018-05-23T05:49:00.948Z,17.24
2018-05-23T05:51:28.585Z,17.26
2018-05-23T05:53:56.192Z,17.34
2018-05-23T05:56:23.939Z,17.42
2018-05-23T05:58:51.541Z,17.42
2018-05-23T06:01:19.359Z,17.48
2018-05-23T06:03:47.042Z,17.46
2018-05-23T06:06:14.799Z,17.51
2018-05-23T06:08:42.437Z,17.62
2018-05-23T06:11:10.079Z,17.67
2018-05-23T06:13:37.783Z,17.78
2018-05-23T06:16:05.400Z,17.91
2018-05-23T06:18:33.790Z,18.03
2018-05-23T06:21:01.415Z,18.11
2018-05-23T06:23:29.080Z,18.18
2018-05-23T06:25:56.685Z,18.26
2018-05-23T06:28:24.329Z,18.32
2018-05-23T06:30:51.944Z,18.39
2018-05-23T06:33:19.596Z,18.37
2018-05-23T06:35:47.240Z,18.37
2018-05-23T06:38:14.889Z,18.26
2018-05-23T06:40:42.560Z,18.23
2018-05-23T06:43:10.202Z,18.35
2018-05-23T06:45:37.826Z,18.46
2018-05-23T06:48:05.595Z,18.45
2018-05-23T06:50:33.256Z,18.42
2018-05-23T06:53:00.860Z,18.48
2018-05-23T06:55:28.555Z,18.51
2018-05-23T06:57:56.240Z,18.57
2018-05-23T07:00:24.083Z,18.65
2018-05-23T07:02:51.706Z,18.60
2018-05-23T07:05:19.426Z,18.69
2018-05-23T07:07:47.076Z,18.76
2018-05-23T07:10:14.717Z,18.81
2018-05-23T07:12:42.394Z,18.80
2018-05-23T07:15:10.024Z,18.88
2018-05-23T07:17:37.616Z,18.84
2018-05-23T07:20:05.267Z,19.02
2018-05-23T07:22:32.883Z,19.14
2018-05-23T07:25:00.589Z,18.97
2018-05-23T07:27:28.192Z,19.12
2018-05-23T07:29:56.068Z,19.20
2018-05-23T07:32:23.672Z,19.37
2018-05-23T07:34:51.377Z,19.37
2018-05-23T07:37:18.965Z,19.49
2018-05-23T07:39:46.624Z,19.52
2018-05-23T07:42:14.226Z,19.65
2018-05-23T07:44:41.889Z,19.70
2018-05-23T07:47:09.734Z,19.86
2018-05-23T07:49:37.332Z,19.83
2018-05-23T07:52:04.972Z,20.01
2018-05-23T07:54:32.658Z,20.09
2018-05-23T07:57:00.304Z,19.89
2018-05-23T07:59:27.915Z,19.97
2018-05-23T08:01:55.566Z,20.05
2018-05-23T08:04:23.196Z,20.26
2018-05-23T08:06:50.857Z,20.26
2018-05-23T08:09:18.471Z,20.14
2018-05-23T08:11:46.135Z,20.15
2018-05-23T08:14:13.760Z,20.29
2018-05-23T08:16:41.437Z,20.36
2018-05-23T08:19:09.084Z,20.35
2018-05-23T08:21:36.736Z,20.43
2018-05-23T08:24:04.389Z,20.58
2018-05-23T08:26:32.006Z,20.74
2018-05-23T08:28:59.657Z,20.87
2018-05-23T08:31:27.281Z,21.00
2018-05-23T08:33:54.933Z,21.15
2018-05-23T08:36:22.590Z,21.17
2018-05-23T08:38:50.195Z,21.19
2018-05-23T08:41:17.800Z,20.95
2018-05-23T08:43:45.437Z,21.10
2018-05-23T08:46:13.060Z,21.10
2018-05-23T08:48:40.713Z,21.25
2018-05-23T08:51:08.304Z,21.48
2018-05-23T08:53:35.910Z,21.69
2018-05-23T08:56:03.556Z,21.78
2018-05-23T08:58:31.193Z,21.81
2018-05-23T09:00:58.873Z,21.88
2018-05-23T09:03:26.471Z,22.19
2018-05-23T09:05:54.119Z,22.27
2018-05-23T09:08:21.760Z,22.24
2018-05-23T09:10:49.404Z,22.05
2018-05-23T09:13:17.024Z,22.21
2018-05-23T09:15:44.656Z,22.11
2018-05-23T09:18:12.255Z,22.14
2018-05-23T09:20:39.880Z,22.14
2018-05-23T09:23:07.495Z,22.29
2018-05-23T09:25:35.153Z,22.21
2018-05-23T09:28:02.750Z,22.38
2018-05-23T09:30:30.362Z,22.45
2018-05-23T09:32:58.027Z,22.51
2018-05-23T09:35:25.624Z,22.76
2018-05-23T09:37:53.280Z,22.89
2018-05-23T09:40:20.902Z,23.14
2018-05-23T09:42:48.520Z,23.17
2018-05-23T09:45:16.214Z,23.21
2018-05-23T09:47:43.777Z,23.02
2018-05-23T09:50:11.404Z,23.30
2018-05-23T09:52:39.101Z,23.64
2018-05-23T09:55:06.751Z,23.96
2018-05-23T09:57:34.384Z,24.11
2018-05-23T10:00:02.091Z,24.07
2018-05-23T10:02:29.760Z,24.24
2018-05-23T10:04:57.373Z,24.37
2018-05-23T10:07:25.089Z,24.31
2018-05-23T10:09:52.703Z,24.58
2018-05-23T10:12:20.404Z,24.73
2018-05-23T10:14:48.047Z,24.56
2018-05-23T10:17:15.647Z,24.34
2018-05-23T10:19:43.263Z,24.07
2018-05-23T10:22:10.893Z,24.04
2018-05-23T10:24:38.530Z,24.09
2018-05-23T10:27:06.112Z,23.90
2018-05-23T10:29:33.747Z,24.08
2018-05-23T10:32:01.348Z,23.81
2018-05-23T10:34:28.987Z,23.57
2018-05-23T10:36:56.596Z,23.21
2018-05-23T10:39:24.329Z,22.89
2018-05-23T10:41:51.930Z,22.55
2018-05-23T10:44:19.588Z,22.12
2018-05-23T10:46:47.225Z,22.13
2018-05-23T10:49:14.839Z,22.20
2018-05-23T10:51:42.480Z,22.15
2018-05-23T10:54:10.108Z,22.25
2018-05-23T10:56:37.747Z,22.21
2018-05-23T10:59:05.329Z,22.14
2018-05-23T11:01:32.976Z,22.21
2018-05-23T11:04:00.564Z,22.07
2018-05-23T11:06:28.246Z,22.06
2018-05-23T11:08:55.906Z,22.01
2018-05-23T11:11:23.489Z,21.72
2018-05-23T11:13:51.133Z,21.81
2018-05-23T11:16:18.743Z,21.89
2018-05-23T11:18:46.444Z,21.85
2018-05-23T11:21:14.073Z,22.05
2018-05-23T11:23:41.672Z,22.25
2018-05-23T11:26:09.994Z,22.35
2018-05-23T11:28:37.647Z,22.45
2018-05-23T11:31:05.296Z,22.49
2018-05-23T11:33:32.951Z,22.46
2018-05-23T11:36:00.588Z,22.45
2018-05-23T11:38:28.180Z,22.14
2018-05-23T11:40:55.839Z,22.17
2018-05-23T11:43:23.462Z,22.26
2018-05-23T11:45:51.189Z,22.38
2018-05-23T11:50:45.733Z,22.09
2018-05-23T11:53:13.425Z,21.59
2018-05-23T11:55:41.056Z,21.69
2018-05-23T11:58:08.712Z,21.78
2018-05-23T12:00:36.337Z,21.91
2018-05-23T12:03:03.964Z,21.94
2018-05-23T12:05:31.548Z,21.82
2018-05-23T12:07:59.189Z,21.70
2018-05-23T12:10:26.800Z,21.70
2018-05-23T12:12:54.437Z,21.75
2018-05-23T12:15:22.049Z,21.61
2018-05-23T12:17:49.700Z,21.65
2018-05-23T12:20:17.349Z,21.59
2018-05-23T12:22:44.936Z,21.82
2018-05-23T12:25:12.720Z,21.91
2018-05-23T12:27:40.310Z,22.04
2018-05-23T12:30:07.973Z,22.14
2018-05-23T12:32:35.570Z,22.04
2018-05-23T12:35:03.241Z,22.19
2018-05-23T12:37:30.869Z,22.17
2018-05-23T12:39:58.769Z,22.30
2018-05-23T12:42:26.520Z,22.28
2018-05-23T12:44:54.158Z,22.27
2018-05-23T12:47:21.752Z,22.22
2018-05-23T12:49:49.561Z,22.31
2018-05-23T12:52:17.193Z,22.40
2018-05-23T12:54:44.792Z,22.49
2018-05-23T12:57:12.431Z,22.59
2018-05-23T12:59:40.284Z,22.70
2018-05-23T13:02:07.912Z,22.77
2018-05-23T13:04:35.544Z,22.83
2018-05-23T13:07:03.174Z,22.94
2018-05-23T13:09:30.782Z,23.20
2018-05-23T13:11:58.531Z,23.31
2018-05-23T13:14:26.161Z,23.17
2018-05-23T13:16:53.796Z,23.04
2018-05-23T13:19:21.428Z,23.19
2018-05-23T13:21:49.076Z,23.25
2018-05-23T13:24:16.682Z,23.28
2018-05-23T13:26:44.315Z,23.27
2018-05-23T13:29:11.908Z,23.32
2018-05-23T13:31:39.541Z,23.26
2018-05-23T13:34:07.137Z,23.18
2018-05-23T13:36:34.737Z,22.91
2018-05-23T13:39:02.467Z,23.08
2018-05-23T13:41:30.049Z,23.13
2018-05-23T13:43:57.709Z,23.26
2018-05-23T13:46:25.321Z,23.43
2018-05-23T13:48:52.964Z,23.46
2018-05-23T13:51:20.637Z,23.40
2018-05-23T13:53:48.285Z,23.38
2018-05-23T13:56:15.889Z,23.61
2018-05-23T13:58:43.533Z,23.69
2018-05-23T14:01:11.142Z,23.77
2018-05-23T14:03:38.762Z,23.92
2018-05-23T14:06:06.365Z,24.12
2018-05-23T14:08:34.023Z,23.95
2018-05-23T14:11:01.616Z,24.06
2018-05-23T14:13:29.247Z,24.55
2018-05-23T14:15:56.859Z,24.99
2018-05-23T14:18:24.569Z,25.40
2018-05-23T14:20:52.164Z,25.46
2018-05-23T14:23:19.766Z,25.42
2018-05-23T14:25:47.409Z,25.24
2018-05-23T14:28:15.004Z,25.05
2018-05-23T14:30:42.647Z,24.99
2018-05-23T14:33:10.257Z,24.78
2018-05-23T14:35:37.898Z,24.99
2018-05-23T14:38:05.484Z,25.29
2018-05-23T14:40:33.121Z,25.41
2018-05-23T14:43:00.741Z,25.96
2018-05-23T14:45:28.465Z,26.58
2018-05-23T14:47:56.068Z,26.90
2018-05-23T14:50:23.687Z,27.00
2018-05-23T14:52:51.306Z,27.17
2018-05-23T14:55:18.950Z,27.29
2018-05-23T14:57:46.588Z,27.49
2018-05-23T15:00:14.298Z,27.78
2018-05-23T15:02:41.893Z,27.95
2018-05-23T15:05:09.717Z,27.99
2018-05-23T15:07:37.317Z,28.09
2018-05-23T15:10:05.046Z,28.03
2018-05-23T15:12:32.681Z,27.59
2018-05-23T15:15:00.284Z,26.98
2018-05-23T15:17:27.926Z,27.15
2018-05-23T15:19:55.678Z,27.41
2018-05-23T15:22:23.182Z,27.20
2018-05-23T15:24:50.774Z,27.47
2018-05-23T15:27:18.510Z,28.01
2018-05-23T15:29:45.987Z,28.39
2018-05-23T15:32:13.621Z,28.70
2018-05-23T15:34:41.259Z,29.06
2018-05-23T15:37:08.938Z,29.19
2018-05-23T15:39:36.609Z,29.53
2018-05-23T15:42:04.198Z,29.52
2018-05-23T15:44:31.877Z,28.74
2018-05-23T15:46:59.478Z,28.35
2018-05-23T15:49:27.214Z,28.30
2018-05-23T15:51:54.836Z,28.09
2018-05-23T15:54:22.496Z,28.28
2018-05-23T15:56:50.176Z,28.18
2018-05-23T15:59:17.745Z,28.04
2018-05-23T16:01:45.347Z,27.67
2018-05-23T16:04:12.980Z,27.12
2018-05-23T16:06:40.577Z,26.98
2018-05-23T16:09:08.284Z,26.80
2018-05-23T16:11:35.902Z,26.59
2018-05-23T16:14:03.522Z,26.43
2018-05-23T16:16:31.115Z,26.14
2018-05-23T16:18:58.741Z,25.96
2018-05-23T16:21:26.356Z,25.93
2018-05-23T16:23:53.988Z,25.88
2018-05-23T16:26:21.593Z,25.82
2018-05-23T16:28:49.256Z,25.77
2018-05-23T16:31:16.861Z,25.77
2018-05-23T16:33:44.469Z,25.72
2018-05-23T16:36:12.110Z,25.76
2018-05-23T16:38:39.747Z,25.71
2018-05-23T16:41:07.381Z,25.67
2018-05-23T16:43:35.004Z,25.54
2018-05-23T16:46:02.653Z,25.60
2018-05-23T16:48:30.293Z,25.56
2018-05-23T16:50:57.959Z,25.40
2018-05-23T16:53:25.564Z,25.43
2018-05-23T16:55:53.219Z,25.41
2018-05-23T16:58:20.827Z,25.39
2018-05-23T17:00:48.481Z,25.28
2018-05-23T17:03:16.093Z,25.18
2018-05-23T17:05:43.757Z,25.20
2018-05-23T17:08:11.606Z,25.08
2018-05-23T17:10:39.328Z,24.93
2018-05-23T17:13:06.925Z,24.85
2018-05-23T17:15:34.573Z,24.87
2018-05-23T17:18:02.195Z,24.89
2018-05-23T17:20:29.811Z,24.89
2018-05-23T17:22:57.458Z,24.82
2018-05-23T17:25:25.088Z,24.75
2018-05-23T17:27:52.721Z,24.69
2018-05-23T17:30:20.351Z,24.67
2018-05-23T17:32:48.028Z,24.62
2018-05-23T17:35:15.734Z,24.67
2018-05-23T17:37:43.371Z,24.55
2018-05-23T17:40:11.089Z,24.55
2018-05-23T17:42:38.706Z,24.57
2018-05-23T17:45:06.320Z,24.47
2018-05-23T17:47:34.006Z,24.47
2018-05-23T17:50:01.638Z,24.53
2018-05-23T17:52:29.342Z,24.47
2018-05-23T17:54:56.950Z,24.40
2018-05-23T17:57:24.598Z,24.48
2018-05-23T17:59:52.205Z,24.53
2018-05-23T18:02:19.862Z,24.51
2018-05-23T18:04:47.442Z,24.56
2018-05-23T18:07:15.077Z,24.57
2018-05-23T18:09:42.746Z,24.62
2018-05-23T18:12:10.416Z,24.63
2018-05-23T18:14:38.056Z,24.67
2018-05-23T18:17:05.680Z,24.52
2018-05-23T18:19:33.336Z,24.48
2018-05-23T18:22:00.952Z,24.53
2018-05-23T18:24:28.760Z,24.47
2018-05-23T18:26:56.345Z,24.48
2018-05-23T18:29:24.116Z,24.41
2018-05-23T18:31:51.714Z,24.34
2018-05-23T18:34:19.363Z,24.19
2018-05-23T18:36:46.998Z,24.16
2018-05-23T18:39:14.715Z,24.13
2018-05-23T18:41:42.325Z,24.08
2018-05-23T18:44:10.061Z,24.06
2018-05-23T18:46:37.654Z,23.99
2018-05-23T18:49:05.321Z,23.91
2018-05-23T18:51:32.941Z,23.88
2018-05-23T18:54:00.606Z,23.80
2018-05-23T18:56:28.361Z,23.75
2018-05-23T18:58:55.992Z,23.67
2018-05-23T19:01:23.637Z,23.65
2018-05-23T19:03:51.354Z,23.57
2018-05-23T19:06:19.074Z,23.48
2018-05-23T19:08:46.726Z,23.52
2018-05-23T19:11:14.358Z,23.45
2018-05-23T19:13:41.988Z,23.37
2018-05-23T19:16:09.638Z,23.34
2018-05-23T19:18:37.239Z,23.23
2018-05-23T19:21:04.889Z,23.14
2018-05-23T19:23:32.625Z,23.06
2018-05-23T19:26:00.270Z,23.05
2018-05-23T19:28:27.897Z,23.01
2018-05-23T19:30:55.536Z,22.97
2018-05-23T19:33:23.184Z,22.90
2018-05-23T19:35:50.822Z,22.81
2018-05-23T19:38:18.581Z,22.83
2018-05-23T19:40:46.288Z,22.80
2018-05-23T19:43:13.918Z,22.79
2018-05-23T19:45:41.565Z,22.77
2018-05-23T19:48:09.176Z,22.65
2018-05-23T19:50:36.902Z,22.59
2018-05-23T19:53:04.561Z,22.53
2018-05-23T19:55:32.212Z,22.49
2018-05-23T19:57:59.835Z,22.33
2018-05-23T20:00:27.517Z,22.32
2018-05-23T20:02:55.163Z,22.29
2018-05-23T20:05:22.811Z,22.31
2018-05-23T20:07:50.420Z,22.30
2018-05-23T20:10:18.137Z,22.26
2018-05-23T20:12:45.750Z,22.21
2018-05-23T20:15:13.361Z,22.23
2018-05-23T20:17:41.009Z,22.20
2018-05-23T20:20:08.610Z,22.18
2018-05-23T20:22:36.302Z,22.18
2018-05-23T20:25:03.913Z,22.10
2018-05-23T20:27:31.750Z,22.02
2018-05-23T20:29:59.365Z,21.93
2018-05-23T20:32:26.998Z,21.94
2018-05-23T20:34:54.620Z,21.91
2018-05-23T20:37:22.332Z,21.85
2018-05-23T20:39:49.934Z,21.86
2018-05-23T20:42:17.577Z,21.81
2018-05-23T20:44:45.192Z,21.80
2018-05-23T20:47:12.884Z,21.78
2018-05-23T20:49:40.589Z,21.77
2018-05-23T20:52:08.257Z,21.70
2018-05-23T20:54:35.866Z,21.63
2018-05-23T20:57:03.492Z,21.55
2018-05-23T20:59:31.175Z,21.53
2018-05-23T21:01:58.819Z,21.50
2018-05-23T21:04:26.444Z,21.52
2018-05-23T21:06:54.191Z,21.51
2018-05-23T21:09:21.799Z,21.52
2018-05-23T21:11:49.485Z,21.51
2018-05-23T21:14:17.141Z,21.49
2018-05-23T21:16:44.751Z,21.48
2018-05-23T21:19:12.420Z,21.47
2018-05-23T21:21:40.041Z,21.30
2018-05-23T21:24:07.691Z,21.31
2018-05-23T21:26:35.396Z,21.36
2018-05-23T21:29:03.041Z,21.30
2018-05-23T21:31:30.641Z,21.23
2018-05-23T21:33:58.280Z,21.27
2018-05-23T21:36:25.889Z,21.23
2018-05-23T21:38:53.518Z,21.24
2018-05-23T21:41:21.121Z,21.25
2018-05-23T21:43:48.783Z,21.28
2018-05-23T21:46:16.388Z,21.25
2018-05-23T21:48:44.136Z,21.24
2018-05-23T21:51:11.728Z,21.22
2018-05-23T21:53:39.325Z,21.13
2018-05-23T21:56:06.948Z,21.17
2018-05-23T21:58:34.555Z,21.18
2018-05-23T22:01:02.205Z,21.11
2018-05-23T22:03:29.823Z,21.05
2018-05-23T22:05:57.485Z,20.98
2018-05-23T22:08:25.168Z,20.95
2018-05-23T22:10:52.814Z,20.95
2018-05-23T22:13:20.427Z,20.98
2018-05-23T22:15:48.065Z,20.97
2018-05-23T22:18:15.749Z,20.97
2018-05-23T22:20:43.337Z,20.98
2018-05-23T22:23:11.028Z,20.95
2018-05-23T22:25:38.784Z,20.88
2018-05-23T22:28:06.400Z,20.86
2018-05-23T22:30:34.083Z,20.81
2018-05-23T22:33:01.656Z,20.76
2018-05-23T22:35:29.334Z,20.79
2018-05-23T22:37:56.953Z,20.61
2018-05-23T22:40:24.622Z,20.58
2018-05-23T22:42:52.266Z,20.50
2018-05-23T22:45:19.853Z,20.48
2018-05-23T22:47:47.497Z,20.45
2018-05-23T22:50:15.104Z,20.35
2018-05-23T22:52:42.731Z,20.28
2018-05-23T22:55:10.324Z,20.24
2018-05-23T22:57:37.988Z,20.28
2018-05-23T23:00:05.657Z,20.23
2018-05-23T23:02:33.376Z,20.16
2018-05-23T23:05:01.092Z,20.09
2018-05-23T23:07:28.750Z,19.95
2018-05-23T23:09:56.361Z,19.89
2018-05-23T23:12:23.999Z,19.84
2018-05-23T23:14:51.605Z,19.68
2018-05-23T23:17:19.223Z,19.59
2018-05-23T23:19:46.863Z,19.59
2018-05-23T23:22:26.089Z,19.56
2018-05-23T23:24:53.686Z,19.46
2018-05-23T23:27:21.337Z,19.43
2018-05-23T23:29:48.933Z,19.49
2018-05-23T23:32:16.599Z,19.47
2018-05-23T23:34:44.203Z,19.37
2018-05-23T23:37:11.813Z,19.30
2018-05-23T23:39:39.442Z,19.29
2018-05-23T23:42:07.095Z,19.32
2018-05-23T23:44:34.846Z,19.32
2018-05-23T23:47:02.385Z,19.28
2018-05-23T23:49:30.018Z,19.27
2018-05-23T23:51:57.613Z,19.28
2018-05-23T23:54:25.327Z,19.27
2018-05-23T23:56:52.917Z,19.25
2018-05-23T23:59:20.568Z,19.22
